Terminal Aerodrome Forecast
Issued by NWS

Home | Current Version | Previous Version | Text Only | Print | Product List | Glossary On
Versions: 1 2 3 4 5 6 7 8 9 10 11 12 13 14 15
367
FTUS46 KEKA 242327
TAFUKI
TAF
KUKI 242327Z 2500/2524 00000KT P6SM BKN150
     FM251400 15003KT 4SM BR SCT150 BKN200
     FM251800 16008KT P6SM BKN150=

USA.gov is the U.S. government's official web portal to all federal, state and local government web resources and services.